Time;durP1;ratioP1;P1;durP2;ratioP2;P2;SDS_P1;SDS_P2;PMS_P1;PMS_P2;Temp;Humidity;BMP_temperature;BMP_pressure;BME280_temperature;BME280_humidity;BME280_pressure;Samples;Min_cycle;Max_cycle;Signal;HPM_P1;HPM_P2
2023/05/20 00:00:43;;;;;;;34.80;25.90;;;384.70;2329.60;;;;;;4760839;30;20097;-86
2023/05/20 00:04:07;;;;;;;33.38;26.30;;;384.60;2329.60;;;;;;4796479;30;20539;-85
2023/05/20 00:07:50;;;;;;;42.83;29.67;;;384.60;2329.60;;;;;;4796652;29;20200;-85
2023/05/20 00:38:17;;;;;;;35.15;24.60;;;384.00;2329.60;;;;;;4730530;30;20160;-85
2023/05/20 01:37:46;;;;;;;52.22;31.98;;;358.90;2329.60;;;;;;4872145;29;20065;-84
2023/05/20 01:41:29;;;;;;;44.35;29.80;;;358.80;2329.60;;;;;;4816538;29;20031;-87
2023/05/20 01:52:30;;;;;;;48.08;30.58;;;358.90;2329.60;;;;;;4795873;30;20041;-87
2023/05/20 02:07:08;;;;;;;44.92;29.27;;;359.00;2329.60;;;;;;4784265;29;20070;-86
2023/05/20 02:39:58;;;;;;;33.80;23.95;;;358.70;2329.60;;;;;;4888824;29;20063;-85
2023/05/20 03:32:27;;;;;;;51.95;29.52;;;358.80;2329.60;;;;;;4838838;29;20524;-86
2023/05/20 03:41:44;;;;;;;53.08;26.60;;;358.60;2329.60;;;;;;4854887;29;20120;-86
2023/05/20 03:45:05;;;;;;;43.78;26.45;;;358.50;2329.60;;;;;;4843299;29;20060;-88
2023/05/20 03:52:02;;;;;;;44.15;26.70;;;358.60;2329.60;;;;;;4824077;29;20080;-87
2023/05/20 04:16:44;;;;;;;43.83;26.75;;;358.60;2329.60;;;;;;4729692;30;20115;-86
2023/05/20 04:23:59;;;;;;;40.67;23.65;;;358.50;2329.60;;;;;;4730319;30;20082;-85
2023/05/20 05:37:00;;;;;;;36.78;25.08;;;358.80;2329.60;;;;;;4969801;29;20435;-88
2023/05/20 05:54:43;;;;;;;35.90;25.02;;;359.10;2329.60;;;;;;4855334;29;20075;-87
2023/05/20 06:23:35;;;;;;;31.85;24.83;;;384.20;2329.60;;;;;;4746200;30;20070;-87
2023/05/20 06:37:09;;;;;;;36.92;26.40;;;409.60;2355.20;;;;;;4776953;30;20092;-87
2023/05/20 06:43:56;;;;;;;34.13;25.45;;;409.90;2355.20;;;;;;4778484;30;20131;-86
2023/05/20 06:54:07;;;;;;;33.95;27.00;;;410.00;2355.20;;;;;;4794377;29;20058;-87
2023/05/20 06:57:56;;;;;;;33.03;25.63;;;410.20;2355.20;;;;;;4748222;30;20040;-87
2023/05/20 07:36:24;;;;;;;35.88;27.90;;;461.50;2380.80;;;;;;4663899;30;20529;-87
2023/05/20 07:39:31;;;;;;;34.75;27.50;;;461.50;2380.80;;;;;;4654051;30;20046;-88
2023/05/20 07:42:06;;;;;;;37.37;27.83;;;461.70;2380.80;;;;;;4658051;30;20065;-88
2023/05/20 07:44:53;;;;;;;32.78;26.90;;;486.40;2380.80;;;;;;4700620;30;20243;-88
2023/05/20 07:47:46;;;;;;;36.88;26.98;;;486.50;2380.80;;;;;;4721372;30;20080;-87
2023/05/20 07:50:49;;;;;;;33.15;25.63;;;486.60;2380.80;;;;;;4710739;30;20065;-87
2023/05/20 07:53:30;;;;;;;31.70;25.85;;;486.40;2380.80;;;;;;4713496;30;20120;-88
2023/05/20 07:56:05;;;;;;;33.47;25.73;;;486.80;2380.80;;;;;;4710170;30;20048;-88
2023/05/20 07:58:31;;;;;;;;;;;486.60;2380.80;;;;;;4719294;30;20166;-86
2023/05/20 08:00:57;;;;;;;31.17;23.45;;;486.80;2380.80;;;;;;4753955;30;19968;-80
2023/05/20 08:03:40;;;;;;;26.75;21.98;;;486.90;2380.80;;;;;;4763542;30;20047;-81
2023/05/20 08:06:16;;;;;;;28.45;22.83;;;487.10;2380.80;;;;;;4861035;29;20073;-86
2023/05/20 08:08:54;;;;;;;28.20;22.55;;;487.10;2380.80;;;;;;4852884;29;20030;-82
2023/05/20 08:11:20;;;;;;;24.98;21.15;;;512.00;2380.80;;;;;;4890073;29;20068;-86
2023/05/20 08:13:47;;;;;;;24.33;21.73;;;512.20;2380.80;;;;;;4918792;29;20032;-84
2023/05/20 08:16:13;;;;;;;24.02;20.75;;;512.30;2380.80;;;;;;4930562;29;20123;-80
2023/05/20 08:18:39;;;;;;;26.98;20.38;;;512.40;2380.80;;;;;;4918675;29;20492;-81
2023/05/20 08:21:08;;;;;;;23.35;18.92;;;512.90;2380.80;;;;;;4966068;29;20047;-84
2023/05/20 08:23:35;;;;;;;28.92;21.02;;;537.90;2406.40;;;;;;4970902;28;20024;-79
2023/05/20 08:26:02;;;;;;;28.75;20.73;;;564.10;2432.00;;;;;;4952652;29;20035;-78
2023/05/20 08:28:29;;;;;;;24.50;19.55;;;538.40;2406.40;;;;;;4943485;29;20023;-83
2023/05/20 08:30:56;;;;;;;25.00;19.17;;;538.40;2406.40;;;;;;4958057;29;20391;-80
2023/05/20 08:33:23;;;;;;;22.38;19.33;;;538.40;2406.40;;;;;;4962604;28;20036;-83
2023/05/20 08:35:49;;;;;;;20.52;18.38;;;538.10;2406.40;;;;;;4958399;29;20031;-80
2023/05/20 08:38:15;;;;;;;25.17;21.20;;;538.50;2406.40;;;;;;4940940;29;20032;-82
2023/05/20 08:40:40;;;;;;;22.30;18.20;;;563.40;2432.00;;;;;;4959692;29;20027;-81
2023/05/20 08:43:06;;;;;;;25.70;19.00;;;563.60;2432.00;;;;;;4940116;29;20530;-82
2023/05/20 08:45:35;;;;;;;21.67;17.35;;;563.80;2432.00;;;;;;4958682;28;20055;-81
2023/05/20 08:48:04;;;;;;;21.20;16.98;;;563.70;2432.00;;;;;;4940229;29;20550;-84
2023/05/20 08:50:30;;;;;;;18.05;14.07;;;563.60;2432.00;;;;;;4940618;29;20114;-82
2023/05/20 08:52:56;;;;;;;15.10;12.77;;;564.00;2432.00;;;;;;4940852;29;20097;-84
2023/05/20 08:55:41;;;;;;;18.40;15.63;;;589.00;2432.00;;;;;;4940147;29;20059;-83
2023/05/20 08:58:08;;;;;;;14.43;12.15;;;589.10;2432.00;;;;;;4957340;29;20031;-82
2023/05/20 09:00:36;;;;;;;18.60;13.52;;;589.40;2432.00;;;;;;4968451;28;20027;-84
2023/05/20 09:03:03;;;;;;;12.52;11.00;;;589.60;2432.00;;;;;;4956322;28;20550;-85
2023/05/20 09:05:29;;;;;;;11.38;9.60;;;589.70;2432.00;;;;;;4939582;29;20054;-82
2023/05/20 09:08:05;;;;;;;15.80;9.07;;;614.40;2432.00;;;;;;4957530;29;20376;-82
2023/05/20 09:10:32;;;;;;;11.93;9.00;;;614.60;2432.00;;;;;;4956280;29;20395;-83
2023/05/20 09:13:01;;;;;;;11.70;8.18;;;614.80;2304.00;;;;;;4957836;29;20035;-81
2023/05/20 09:15:27;;;;;;;10.60;8.65;;;614.50;2355.20;;;;;;4955767;29;20058;-83
2023/05/20 09:17:53;;;;;;;9.43;7.68;;;614.80;2355.20;;;;;;4957236;29;20030;-83
2023/05/20 09:20:21;;;;;;;11.30;6.95;;;615.00;2304.00;;;;;;4955891;29;20051;-82
2023/05/20 09:22:52;;;;;;;12.88;7.50;;;615.00;2201.60;;;;;;4956535;29;20371;-82
2023/05/20 09:25:21;;;;;;;13.27;8.13;;;615.10;2227.20;;;;;;4956763;29;20031;-84
2023/05/20 09:27:49;;;;;;;11.38;8.48;;;615.30;2227.20;;;;;;4956161;29;20028;-83
2023/05/20 09:30:18;;;;;;;10.80;8.27;;;640.20;2252.80;;;;;;4957628;29;20383;-84
2023/05/20 09:32:44;;;;;;;11.48;7.22;;;640.30;2201.60;;;;;;4955917;29;20400;-83
2023/05/20 09:35:13;;;;;;;10.57;7.43;;;640.30;2176.00;;;;;;4955523;29;20039;-83
2023/05/20 09:37:43;;;;;;;9.98;7.70;;;640.40;2150.40;;;;;;4955456;29;20078;-82
2023/05/20 09:40:11;;;;;;;11.70;7.43;;;640.70;2176.00;;;;;;4955473;29;20019;-83
2023/05/20 09:43:04;;;;;;;11.20;6.97;;;665.80;2124.80;;;;;;4956228;29;20031;-84
2023/05/20 09:45:30;;;;;;;9.15;6.72;;;640.90;2099.20;;;;;;4952504;29;20047;-84
2023/05/20 09:47:56;;;;;;;12.73;8.07;;;665.70;2150.40;;;;;;4955047;29;20039;-83
2023/05/20 09:50:23;;;;;;;11.95;7.85;;;665.70;2124.80;;;;;;4939066;29;20023;-82
2023/05/20 09:52:51;;;;;;;9.02;7.35;;;665.70;2099.20;;;;;;4955681;29;20475;-81
2023/05/20 09:55:18;;;;;;;10.40;8.40;;;666.10;2073.60;;;;;;4940305;29;20035;-82
2023/05/20 09:57:45;;;;;;;13.25;7.45;;;666.10;2022.40;;;;;;4955190;29;20031;-83
2023/05/20 10:00:13;;;;;;;8.73;6.72;;;666.30;2048.00;;;;;;4955574;29;20034;-83
2023/05/20 10:02:45;;;;;;;12.57;8.77;;;666.40;2048.00;;;;;;4956489;29;20420;-82
2023/05/20 10:05:26;;;;;;;9.93;7.03;;;666.50;2022.40;;;;;;4938458;29;20116;-80
2023/05/20 10:08:38;;;;;;;9.98;6.57;;;691.20;2022.40;;;;;;4956323;29;20133;-85
2023/05/20 10:11:18;;;;;;;11.73;7.20;;;691.30;2022.40;;;;;;4920885;29;20031;-77
2023/05/20 10:13:55;;;;;;;11.50;7.50;;;691.60;2048.00;;;;;;4955598;28;20475;-79
2023/05/20 10:16:59;;;;;;;13.00;8.18;;;691.70;2022.40;;;;;;4955386;29;20114;-83
2023/05/20 10:19:34;;;;;;;13.95;10.40;;;691.70;1996.80;;;;;;4877328;29;20044;-80
2023/05/20 10:22:05;;;;;;;10.20;7.50;;;691.90;1996.80;;;;;;4877306;29;20029;-81
2023/05/20 10:24:32;;;;;;;9.68;6.72;;;716.80;1971.20;;;;;;4877887;29;20039;-83
2023/05/20 10:27:01;;;;;;;13.93;7.05;;;716.80;1945.60;;;;;;4879053;29;20085;-83
2023/05/20 10:29:27;;;;;;;10.45;6.45;;;717.00;1945.60;;;;;;4877888;29;20109;-83
2023/05/20 10:31:53;;;;;;;12.15;6.45;;;716.90;1920.00;;;;;;4878363;29;20482;-81
2023/05/20 10:34:21;;;;;;;9.40;6.47;;;717.10;1945.60;;;;;;4877839;29;20056;-81
2023/05/20 10:36:52;;;;;;;8.60;6.47;;;717.10;1945.60;;;;;;4878513;29;20128;-81
2023/05/20 10:39:24;;;;;;;11.18;6.22;;;717.40;1945.60;;;;;;4877423;29;20029;-83
2023/05/20 10:41:50;;;;;;;9.05;7.07;;;717.40;1894.40;;;;;;4878600;29;20064;-81
2023/05/20 10:44:16;;;;;;;10.13;7.43;;;717.40;1894.40;;;;;;4876989;29;20056;-81
2023/05/20 10:46:42;;;;;;;8.27;6.75;;;717.50;1894.40;;;;;;4878344;29;20036;-83
2023/05/20 10:49:18;;;;;;;11.00;6.15;;;717.40;1894.40;;;;;;4876906;29;20119;-81
2023/05/20 10:51:45;;;;;;;10.60;6.20;;;717.40;1894.40;;;;;;4878507;29;20033;-81
2023/05/20 10:54:13;;;;;;;11.88;8.48;;;717.40;1894.40;;;;;;4877018;29;20108;-81
2023/05/20 10:56:49;;;;;;;9.15;7.25;;;717.70;1920.00;;;;;;4944535;29;20047;-81
2023/05/20 10:59:15;;;;;;;13.70;6.22;;;717.70;1894.40;;;;;;4953695;29;20034;-80
2023/05/20 11:01:42;;;;;;;10.40;6.65;;;717.50;1868.80;;;;;;4954874;29;20030;-82
2023/05/20 11:04:09;;;;;;;10.07;5.80;;;717.70;1894.40;;;;;;4954188;29;20023;-81
2023/05/20 11:06:34;;;;;;;12.00;9.43;;;742.50;1868.80;;;;;;4954011;29;20034;-85
2023/05/20 11:09:06;;;;;;;12.45;6.90;;;742.50;1868.80;;;;;;4954350;29;20031;-79
2023/05/20 11:11:32;;;;;;;;;;;742.90;1868.80;;;;;;4954731;29;20031;-80
2023/05/20 11:13:59;;;;;;;13.23;6.18;;;742.90;1843.20;;;;;;4955152;29;20005;-79
2023/05/20 11:16:25;;;;;;;10.45;5.90;;;742.50;1894.40;;;;;;4955446;29;20035;-81
2023/05/20 11:18:51;;;;;;;8.20;5.50;;;717.60;1868.80;;;;;;4954958;29;20032;-82
2023/05/20 11:21:19;;;;;;;10.30;6.28;;;717.20;1843.20;;;;;;4954243;29;20047;-83
2023/05/20 11:23:45;;;;;;;9.50;6.15;;;717.30;1868.80;;;;;;4955829;29;20415;-83
2023/05/20 11:26:10;;;;;;;12.20;6.78;;;717.20;1894.40;;;;;;4956220;28;20468;-84
2023/05/20 11:28:37;;;;;;;8.38;5.82;;;717.40;1894.40;;;;;;4975279;28;20031;-84
2023/05/20 11:31:03;;;;;;;13.23;6.05;;;717.70;1894.40;;;;;;4960118;29;20042;-84
2023/05/20 11:33:29;;;;;;;10.07;6.65;;;717.50;1920.00;;;;;;4964324;29;20146;-84
2023/05/20 11:35:56;;;;;;;10.23;6.75;;;717.10;1920.00;;;;;;4954622;29;20055;-83
2023/05/20 11:38:23;;;;;;;8.05;5.65;;;716.80;1971.20;;;;;;4959509;29;20130;-84
2023/05/20 11:40:53;;;;;;;8.15;6.25;;;691.90;1920.00;;;;;;4957500;29;20030;-84
2023/05/20 11:43:20;;;;;;;9.73;8.25;;;691.70;1920.00;;;;;;4960009;29;20031;-82
2023/05/20 11:45:51;;;;;;;9.55;8.05;;;691.40;1920.00;;;;;;4957369;29;20023;-84
2023/05/20 11:48:18;;;;;;;8.45;6.65;;;691.30;1868.80;;;;;;4958589;29;20031;-82
2023/05/20 11:50:46;;;;;;;8.20;6.07;;;691.20;1817.60;;;;;;4957851;29;20031;-87
2023/05/20 11:53:18;;;;;;;11.38;6.63;;;691.20;1843.20;;;;;;4959019;29;20054;-85
2023/05/20 11:55:53;;;;;;;8.10;5.75;;;691.80;1817.60;;;;;;4954482;29;20039;-85
2023/05/20 11:58:21;;;;;;;9.55;6.25;;;716.90;1817.60;;;;;;4940623;29;20035;-87
2023/05/20 12:00:47;;;;;;;8.80;5.38;;;717.20;1792.00;;;;;;4953091;29;20032;-86
2023/05/20 12:03:14;;;;;;;7.07;5.03;;;717.70;1740.80;;;;;;4958093;28;20031;-86
2023/05/20 12:05:40;;;;;;;8.48;4.60;;;742.80;1740.80;;;;;;4957665;29;20383;-87
2023/05/20 12:08:06;;;;;;;9.30;4.88;;;742.50;1715.20;;;;;;4957866;29;20475;-87
2023/05/20 12:10:36;;;;;;;10.15;5.05;;;742.40;1740.80;;;;;;4958300;29;20463;-86
2023/05/20 12:13:02;;;;;;;8.70;5.22;;;742.70;1715.20;;;;;;4958596;29;20460;-86
2023/05/20 12:15:28;;;;;;;11.05;4.60;;;743.00;1689.60;;;;;;4942694;29;20035;-86
2023/05/20 12:17:54;;;;;;;10.88;5.05;;;743.10;1638.40;;;;;;4956569;29;20074;-83
2023/05/20 12:20:24;;;;;;;10.13;8.15;;;768.10;1638.40;;;;;;4957548;29;20051;-83
2023/05/20 12:22:50;;;;;;;12.43;7.03;;;;;;;;;;4956892;29;20033;-83
2023/05/20 12:25:18;;;;;;;8.38;6.32;;;768.10;1689.60;;;;;;4958235;29;20062;-84
2023/05/20 12:27:46;;;;;;;9.77;7.72;;;768.40;1689.60;;;;;;4956921;29;20042;-82
2023/05/20 12:30:15;;;;;;;9.15;6.70;;;768.60;1689.60;;;;;;4941911;29;20039;-85
2023/05/20 12:32:42;;;;;;;9.63;7.10;;;768.70;1664.00;;;;;;4956700;29;20054;-83
2023/05/20 12:35:09;;;;;;;11.63;8.98;;;768.70;1664.00;;;;;;4959096;29;20027;-82
2023/05/20 12:37:36;;;;;;;10.75;7.20;;;768.70;1664.00;;;;;;4956786;28;20031;-85
2023/05/20 12:40:08;;;;;;;11.27;5.88;;;768.90;1638.40;;;;;;4942368;29;20031;-86
2023/05/20 12:42:38;;;;;;;13.82;6.07;;;768.10;1664.00;;;;;;4957606;29;20031;-86
2023/05/20 12:45:05;;;;;;;9.43;5.53;;;768.50;1664.00;;;;;;4956265;29;20038;-83
2023/05/20 12:47:32;;;;;;;8.50;5.63;;;768.60;1612.80;;;;;;4958246;29;20046;-85
2023/05/20 12:49:58;;;;;;;8.57;4.82;;;768.90;1612.80;;;;;;4957248;29;20082;-86
2023/05/20 12:52:25;;;;;;;7.78;4.15;;;768.40;1612.80;;;;;;4942171;29;20059;-85
2023/05/20 12:54:52;;;;;;;9.55;5.75;;;768.40;1587.20;;;;;;4956636;29;20435;-84
2023/05/20 12:57:18;;;;;;;7.90;5.38;;;768.60;1612.80;;;;;;4957802;29;20486;-86
2023/05/20 12:59:44;;;;;;;9.70;6.22;;;768.10;1638.40;;;;;;4956292;29;20106;-83
2023/05/20 13:02:10;;;;;;;10.40;7.63;;;743.00;1664.00;;;;;;4957153;29;20042;-85
2023/05/20 13:04:36;;;;;;;9.02;5.78;;;768.00;1638.40;;;;;;4957960;29;20027;-85
2023/05/20 13:07:02;;;;;;;7.88;5.82;;;768.20;1587.20;;;;;;4955800;29;20059;-85
2023/05/20 13:09:28;;;;;;;9.65;5.38;;;768.30;1612.80;;;;;;4957661;29;20035;-85
2023/05/20 13:11:54;;;;;;;9.15;5.68;;;768.00;1612.80;;;;;;4956321;29;20027;-84
2023/05/20 13:14:20;;;;;;;17.50;7.10;;;742.90;1638.40;;;;;;4957051;29;20031;-85
2023/05/20 13:16:48;;;;;;;12.57;7.85;;;742.50;1689.60;;;;;;4956374;29;20035;-85
2023/05/20 13:19:14;;;;;;;9.80;7.28;;;717.50;1689.60;;;;;;4956915;29;20034;-85
2023/05/20 13:21:39;;;;;;;9.40;6.78;;;717.20;1689.60;;;;;;4956456;29;20031;-85
2023/05/20 13:24:05;;;;;;;12.18;7.78;;;717.00;1689.60;;;;;;4941559;29;20066;-85
2023/05/20 13:26:31;;;;;;;8.55;5.18;;;716.80;1689.60;;;;;;4956357;29;20690;-87
2023/05/20 13:28:57;;;;;;;12.60;5.80;;;716.80;1689.60;;;;;;4956970;29;20082;-87
2023/05/20 13:31:23;;;;;;;9.05;5.40;;;692.00;1689.60;;;;;;4957001;29;20028;-87
2023/05/20 13:33:49;;;;;;;9.77;5.78;;;716.90;1689.60;;;;;;4953220;29;20457;-86
2023/05/20 13:36:15;;;;;;;10.38;4.90;;;716.90;1715.20;;;;;;4972270;28;20031;-87
2023/05/20 13:38:41;;;;;;;8.18;5.20;;;692.10;1664.00;;;;;;4956340;29;20031;-87
2023/05/20 13:41:06;;;;;;;10.18;7.25;;;692.10;1664.00;;;;;;4957233;29;20055;-87
2023/05/20 13:43:33;;;;;;;11.00;5.80;;;692.00;1689.60;;;;;;4956881;29;20027;-86
2023/05/20 13:45:58;;;;;;;34.17;8.80;;;716.80;1740.80;;;;;;4939779;29;20038;-87
2023/05/20 13:48:24;;;;;;;13.48;7.72;;;692.00;1740.80;;;;;;4955046;28;20031;-87
2023/05/20 13:50:50;;;;;;;9.35;7.00;;;691.80;1740.80;;;;;;4955279;29;20027;-87
2023/05/20 13:53:16;;;;;;;7.13;5.68;;;691.70;1766.40;;;;;;4939710;29;20059;-86
2023/05/20 13:55:42;;;;;;;10.30;5.57;;;691.60;1766.40;;;;;;4955826;29;20387;-87
2023/05/20 13:58:08;;;;;;;15.75;9.07;;;691.70;1766.40;;;;;;4949288;29;20109;-87
2023/05/20 14:00:37;;;;;;;10.13;6.68;;;691.60;1792.00;;;;;;4954891;29;20027;-86
2023/05/20 14:03:03;;;;;;;12.20;6.80;;;691.40;1766.40;;;;;;4940146;29;20523;-86
2023/05/20 14:05:31;;;;;;;9.50;5.97;;;691.40;1792.00;;;;;;4956663;29;20038;-87
2023/05/20 14:07:57;;;;;;;8.55;6.32;;;691.30;1792.00;;;;;;4940488;29;20125;-85
2023/05/20 14:10:23;;;;;;;11.05;6.10;;;666.30;1817.60;;;;;;4956693;29;20047;-85
2023/05/20 14:12:49;;;;;;;11.93;6.47;;;666.40;1792.00;;;;;;4956668;29;20031;-85
2023/05/20 14:15:15;;;;;;;12.35;6.22;;;666.40;1792.00;;;;;;4955004;29;20123;-87
2023/05/20 14:17:40;;;;;;;9.73;6.68;;;691.30;1766.40;;;;;;4939918;29;20027;-84
2023/05/20 14:20:07;;;;;;;12.23;6.45;;;691.60;1715.20;;;;;;4955539;29;20495;-84
2023/05/20 14:22:33;;;;;;;7.15;5.13;;;691.40;1689.60;;;;;;4954118;29;20059;-82
2023/05/20 14:24:59;;;;;;;11.50;6.28;;;691.80;1638.40;;;;;;4956361;29;20027;-84
2023/05/20 14:27:25;;;;;;;9.27;5.55;;;716.90;1638.40;;;;;;4955637;29;20471;-85
2023/05/20 14:29:50;;;;;;;11.85;6.03;;;716.80;1664.00;;;;;;4954948;29;20023;-83
2023/05/20 14:32:16;;;;;;;8.80;7.20;;;691.80;1638.40;;;;;;4955794;29;20471;-85
2023/05/20 14:34:42;;;;;;;22.38;14.82;;;691.60;1638.40;;;;;;4954600;29;20047;-84
2023/05/20 14:37:10;;;;;;;14.15;9.52;;;691.40;1689.60;;;;;;4955164;29;20027;-85
2023/05/20 14:39:36;;;;;;;12.07;8.02;;;666.50;1689.60;;;;;;4954744;29;20027;-83
2023/05/20 14:42:02;;;;;;;10.52;6.88;;;666.40;1689.60;;;;;;4955634;29;20062;-83
2023/05/20 14:44:30;;;;;;;11.68;7.90;;;666.20;1689.60;;;;;;4945470;29;20102;-83
2023/05/20 14:46:55;;;;;;;8.68;6.63;;;666.20;1715.20;;;;;;4939898;29;20067;-85
2023/05/20 14:49:22;;;;;;;11.43;6.35;;;666.50;1715.20;;;;;;4938580;29;20070;-84
2023/05/20 14:51:47;;;;;;;12.07;7.95;;;691.60;1689.60;;;;;;4958697;29;20082;-84
2023/05/20 14:54:14;;;;;;;12.98;6.93;;;692.00;1664.00;;;;;;4951385;29;20419;-84
2023/05/20 14:56:41;;;;;;;16.50;7.97;;;716.90;1689.60;;;;;;4955590;29;20035;-85
2023/05/20 14:59:07;;;;;;;14.57;7.00;;;717.20;1664.00;;;;;;4954606;29;20019;-82
2023/05/20 15:01:34;;;;;;;10.48;6.85;;;717.30;1612.80;;;;;;4954441;29;20028;-83
2023/05/20 15:04:00;;;;;;;13.85;7.03;;;717.40;1587.20;;;;;;4954667;29;20156;-85
2023/05/20 15:06:26;;;;;;;15.35;9.85;;;717.50;1587.20;;;;;;4954395;29;20056;-82
2023/05/20 15:08:52;;;;;;;9.23;6.82;;;717.50;1612.80;;;;;;4955440;29;20039;-83
2023/05/20 15:11:18;;;;;;;13.32;7.47;;;717.50;1612.80;;;;;;4953727;29;20023;-84
2023/05/20 15:13:45;;;;;;;11.18;8.18;;;717.50;1612.80;;;;;;4955374;29;20474;-86
2023/05/20 15:16:11;;;;;;;8.93;7.38;;;717.50;1612.80;;;;;;4954329;29;20090;-82
2023/05/20 15:18:38;;;;;;;10.90;6.75;;;717.40;1587.20;;;;;;4953731;29;20054;-82
2023/05/20 15:21:04;;;;;;;9.48;7.60;;;717.40;1612.80;;;;;;4954402;29;20055;-84
2023/05/20 15:23:30;;;;;;;11.98;7.10;;;717.30;1638.40;;;;;;4953628;29;20039;-81
2023/05/20 15:25:58;;;;;;;9.55;6.00;;;717.30;1638.40;;;;;;4956169;29;20536;-82
2023/05/20 15:28:25;;;;;;;10.40;6.32;;;717.20;1638.40;;;;;;4954201;29;20031;-83
2023/05/20 15:30:55;;;;;;;10.65;6.30;;;717.10;1638.40;;;;;;4954504;29;20034;-82
2023/05/20 15:33:21;;;;;;;14.73;6.18;;;717.10;1638.40;;;;;;4938377;29;20027;-83
2023/05/20 15:35:47;;;;;;;14.27;7.38;;;717.00;1638.40;;;;;;4938414;29;20471;-83
2023/05/20 15:38:15;;;;;;;11.40;5.60;;;716.90;1638.40;;;;;;4955661;29;20027;-84
2023/05/20 15:40:42;;;;;;;16.67;6.30;;;717.00;1664.00;;;;;;4955426;29;20023;-84
2023/05/20 15:43:08;;;;;;;11.15;6.35;;;717.10;1664.00;;;;;;4956082;29;20050;-84
2023/05/20 15:45:33;;;;;;;17.70;9.63;;;716.90;1664.00;;;;;;4953188;29;20105;-83
2023/05/20 15:47:59;;;;;;;16.92;9.02;;;716.80;1689.60;;;;;;4938421;29;20027;-85
2023/05/20 15:50:27;;;;;;;11.20;8.68;;;716.80;1689.60;;;;;;4954846;29;20031;-84
2023/05/20 15:52:54;;;;;;;12.43;7.78;;;692.00;1664.00;;;;;;4953271;29;20082;-84
2023/05/20 15:55:23;;;;;;;14.07;8.90;;;691.80;1664.00;;;;;;4955356;29;20038;-82
2023/05/20 15:57:50;;;;;;;23.77;14.35;;;691.70;1689.60;;;;;;4954941;29;20028;-83
2023/05/20 16:00:18;;;;;;;20.75;15.82;;;691.50;1689.60;;;;;;4969558;28;20082;-84
2023/05/20 16:02:44;;;;;;;11.98;9.40;;;691.30;1715.20;;;;;;4953958;29;20427;-83
2023/05/20 16:05:10;;;;;;;14.88;10.00;;;666.50;1715.20;;;;;;4954321;29;20059;-82
2023/05/20 16:07:36;;;;;;;14.43;7.28;;;666.30;1740.80;;;;;;4954683;29;20456;-83
2023/05/20 16:10:03;;;;;;;12.48;7.32;;;666.20;1766.40;;;;;;4962697;29;20028;-83
2023/05/20 16:12:28;;;;;;;13.68;7.20;;;666.20;1766.40;;;;;;4970628;28;20028;-81
2023/05/20 16:14:54;;;;;;;9.60;6.03;;;666.00;1766.40;;;;;;4970777;29;20050;-84
2023/05/20 16:17:20;;;;;;;9.82;5.90;;;665.90;1766.40;;;;;;4972231;29;20046;-83
2023/05/20 16:19:47;;;;;;;11.15;6.03;;;665.70;1766.40;;;;;;4954950;29;20046;-81
2023/05/20 16:22:13;;;;;;;15.32;6.43;;;665.60;1740.80;;;;;;4954816;29;20034;-82
2023/05/20 16:24:40;;;;;;;10.93;6.70;;;666.20;1740.80;;;;;;4958783;29;20028;-86
2023/05/20 16:27:06;;;;;;;14.02;6.75;;;640.90;1740.80;;;;;;4943913;29;20391;-85
2023/05/20 16:29:32;;;;;;;12.32;9.02;;;640.80;1715.20;;;;;;4957708;29;20082;-84
2023/05/20 16:31:58;;;;;;;10.02;6.75;;;640.70;1740.80;;;;;;4957245;29;20078;-86
2023/05/20 16:34:24;;;;;;;16.02;9.95;;;640.60;1715.20;;;;;;4959158;29;20081;-85
2023/05/20 16:36:50;;;;;;;17.08;10.80;;;640.50;1740.80;;;;;;4957339;29;20050;-88
2023/05/20 16:39:16;;;;;;;14.38;9.68;;;640.40;1766.40;;;;;;4959367;29;20456;-84
2023/05/20 16:41:42;;;;;;;18.30;11.35;;;640.40;1766.40;;;;;;4956453;29;20027;-85
2023/05/20 16:44:08;;;;;;;15.60;9.68;;;640.20;1766.40;;;;;;4942023;29;20023;-85
2023/05/20 16:46:35;;;;;;;10.52;8.05;;;640.10;1766.40;;;;;;4956436;29;20042;-87
2023/05/20 16:49:00;;;;;;;14.05;8.50;;;640.20;1766.40;;;;;;4958792;29;20035;-85
2023/05/20 16:51:26;;;;;;;11.20;7.80;;;640.00;1792.00;;;;;;4940778;29;20529;-86
2023/05/20 16:53:52;;;;;;;12.32;7.25;;;615.30;1766.40;;;;;;4957706;29;20042;-86
2023/05/20 16:56:20;;;;;;;17.48;8.27;;;615.30;1792.00;;;;;;4956005;29;20034;-89
2023/05/20 16:58:46;;;;;;;16.55;7.47;;;615.20;1792.00;;;;;;4957722;29;20440;-82
2023/05/20 17:01:12;;;;;;;12.63;7.53;;;615.20;1792.00;;;;;;4956793;29;20811;-81
2023/05/20 17:03:38;;;;;;;13.98;7.68;;;615.10;1792.00;;;;;;4940321;29;20023;-80
2023/05/20 17:06:04;;;;;;;14.75;7.38;;;615.00;1792.00;;;;;;4971698;28;20118;-82
2023/05/20 17:08:30;;;;;;;16.60;7.40;;;614.70;1792.00;;;;;;4955534;29;20039;-84
2023/05/20 17:10:58;;;;;;;13.15;6.57;;;614.90;1817.60;;;;;;4956384;29;20028;-80
2023/05/20 17:13:24;;;;;;;16.52;7.60;;;614.90;1843.20;;;;;;4955393;29;20295;-80
2023/05/20 17:15:50;;;;;;;12.52;6.13;;;614.80;1894.40;;;;;;4941507;29;20063;-85
2023/05/20 17:18:16;;;;;;;11.63;6.20;;;614.70;1868.80;;;;;;4955297;29;20027;-85
2023/05/20 17:20:42;;;;;;;9.55;7.18;;;614.70;1868.80;;;;;;4957967;29;20078;-87
2023/05/20 17:23:07;;;;;;;13.07;6.63;;;614.70;1868.80;;;;;;4955768;28;20034;-86
2023/05/20 17:25:33;;;;;;;16.08;7.78;;;614.60;1868.80;;;;;;4957358;29;20459;-84
2023/05/20 17:27:59;;;;;;;12.82;7.25;;;614.60;1868.80;;;;;;4956895;29;20035;-81
2023/05/20 17:30:28;;;;;;;12.20;7.22;;;614.60;1868.80;;;;;;4939984;29;20037;-83
2023/05/20 17:32:56;;;;;;;10.13;7.20;;;614.50;1843.20;;;;;;4956169;29;20455;-85
2023/05/20 17:35:24;;;;;;;15.43;7.63;;;614.50;1868.80;;;;;;4956727;29;20095;-82
2023/05/20 17:37:52;;;;;;;14.57;6.20;;;614.40;1868.80;;;;;;4956438;29;20114;-81
2023/05/20 17:40:18;;;;;;;10.93;6.05;;;589.70;1843.20;;;;;;4955381;29;20027;-82
2023/05/20 17:42:45;;;;;;;13.50;5.65;;;589.70;1868.80;;;;;;4956512;29;20467;-83
2023/05/20 17:45:10;;;;;;;13.07;6.18;;;589.70;1868.80;;;;;;4955174;29;20031;-83
2023/05/20 17:47:36;;;;;;;8.65;5.63;;;589.70;1868.80;;;;;;4955332;29;20032;-84
2023/05/20 17:50:02;;;;;;;10.90;6.10;;;589.60;1868.80;;;;;;4956936;29;20407;-85
2023/05/20 17:52:28;;;;;;;10.50;6.25;;;589.50;1894.40;;;;;;4938229;29;20019;-84
2023/05/20 17:54:54;;;;;;;14.63;6.13;;;589.50;1868.80;;;;;;4940803;29;20027;-86
2023/05/20 17:57:20;;;;;;;10.73;6.32;;;589.50;1894.40;;;;;;4939012;29;20238;-86
2023/05/20 17:59:46;;;;;;;15.38;6.65;;;589.40;1894.40;;;;;;4955028;29;20361;-83
2023/05/20 18:02:12;;;;;;;15.43;6.72;;;589.40;1920.00;;;;;;4954780;29;20031;-84
2023/05/20 18:04:37;;;;;;;19.33;8.05;;;589.30;1920.00;;;;;;4939463;29;20479;-85
2023/05/20 18:07:03;;;;;;;14.27;7.22;;;589.20;1920.00;;;;;;4938989;29;20035;-83
2023/05/20 18:09:29;;;;;;;15.60;7.80;;;589.20;1920.00;;;;;;4939748;29;20118;-83
2023/05/20 18:11:55;;;;;;;14.77;8.15;;;589.20;1945.60;;;;;;4955388;29;20114;-83
2023/05/20 18:14:22;;;;;;;16.75;8.38;;;589.00;1971.20;;;;;;4940826;29;20027;-82
2023/05/20 18:16:48;;;;;;;16.05;7.85;;;588.90;1971.20;;;;;;4939444;29;20373;-81
2023/05/20 18:19:14;;;;;;;14.55;7.03;;;588.80;1971.20;;;;;;4954394;29;20427;-82
2023/05/20 18:21:40;;;;;;;12.80;6.47;;;588.80;1920.00;;;;;;4956049;29;20086;-82
2023/05/20 18:24:06;;;;;;;11.70;6.28;;;588.80;1920.00;;;;;;4955866;29;20038;-84
2023/05/20 18:26:32;;;;;;;13.80;6.00;;;588.80;1920.00;;;;;;4955495;29;20039;-84
2023/05/20 18:28:58;;;;;;;12.82;5.97;;;564.10;1920.00;;;;;;4955873;29;20114;-85
2023/05/20 18:31:24;;;;;;;11.70;6.05;;;564.00;1920.00;;;;;;4954611;29;20539;-83
2023/05/20 18:33:50;;;;;;;17.05;8.32;;;564.00;1894.40;;;;;;4955512;28;20028;-83
2023/05/20 18:36:16;;;;;;;17.70;7.63;;;564.00;1894.40;;;;;;4954372;29;20090;-84
2023/05/20 18:38:43;;;;;;;13.73;7.70;;;563.90;1920.00;;;;;;4939876;29;20031;-81
2023/05/20 18:41:09;;;;;;;13.98;8.13;;;563.90;1894.40;;;;;;4939067;29;20050;-82
2023/05/20 18:43:35;;;;;;;11.88;7.80;;;563.90;1920.00;;;;;;4939081;29;20471;-84
2023/05/20 18:46:01;;;;;;;18.35;8.13;;;563.80;1945.60;;;;;;4955206;29;20035;-82
2023/05/20 18:48:27;;;;;;;16.27;7.20;;;563.80;1945.60;;;;;;4899003;29;20044;-83
2023/05/20 18:50:54;;;;;;;12.63;7.25;;;563.70;1971.20;;;;;;4915760;29;20140;-82
2023/05/20 18:53:19;;;;;;;12.18;7.28;;;563.60;2048.00;;;;;;4914677;29;20040;-78